createdAt,value
2022-12-31T00:01:16.726Z,42.67
2022-12-31T00:03:45.439Z,39.53
2022-12-31T00:06:17.987Z,38.08
2022-12-31T00:08:46.012Z,38.50
2022-12-31T00:11:14.439Z,38.63
2022-12-31T00:13:41.860Z,38.45
2022-12-31T00:16:12.658Z,41.50
2022-12-31T00:18:43.815Z,42.90
2022-12-31T00:21:12.297Z,42.00
2022-12-31T00:23:39.939Z,49.38
2022-12-31T00:26:10.380Z,62.50
2022-12-31T00:28:39.023Z,57.25
2022-12-31T00:31:18.416Z,55.25
2022-12-31T00:33:46.158Z,53.88
2022-12-31T00:36:16.234Z,59.20
2022-12-31T00:38:46.947Z,53.35
2022-12-31T00:41:15.258Z,48.05
2022-12-31T00:43:43.161Z,48.90
2022-12-31T00:46:12.009Z,50.47
2022-12-31T00:48:40.037Z,53.88
2022-12-31T00:51:10.895Z,47.13
2022-12-31T00:53:38.738Z,41.53
2022-12-31T00:56:14.041Z,42.83
2022-12-31T00:58:42.195Z,42.00
2022-12-31T01:01:14.656Z,44.13
2022-12-31T01:03:42.520Z,42.80
2022-12-31T01:06:10.115Z,42.30
2022-12-31T01:08:37.749Z,49.65
2022-12-31T01:11:24.344Z,53.65
2022-12-31T01:14:06.486Z,50.03
2022-12-31T01:16:43.014Z,50.72
2022-12-31T01:19:15.672Z,54.65
2022-12-31T01:21:44.961Z,52.35
2022-12-31T01:24:13.274Z,55.75
2022-12-31T01:26:41.140Z,49.08
2022-12-31T01:29:12.463Z,52.22
2022-12-31T09:46:38.964Z,61.20
2022-12-31T09:49:27.801Z,55.60
2022-12-31T09:52:34.151Z,53.17
2022-12-31T16:09:30.611Z,52.85
2022-12-31T16:11:59.494Z,59.13
2022-12-31T16:14:36.519Z,61.75
2022-12-31T16:17:05.626Z,61.30
2022-12-31T16:19:46.215Z,62.55
2022-12-31T16:22:14.981Z,64.95
2022-12-31T16:25:19.507Z,64.07
2022-12-31T16:27:30.609Z,65.63
2022-12-31T16:30:07.106Z,68.95
2022-12-31T16:32:37.141Z,63.10
2022-12-31T16:35:23.642Z,63.17
2022-12-31T16:38:04.042Z,65.53
2022-12-31T16:40:31.652Z,66.38
2022-12-31T16:42:58.996Z,62.35
2022-12-31T16:45:34.853Z,61.47
2022-12-31T16:48:16.386Z,61.07
2022-12-31T16:50:50.675Z,65.90
2022-12-31T16:53:21.167Z,62.45
2022-12-31T16:56:02.273Z,61.70
2022-12-31T16:58:33.022Z,71.72
2022-12-31T17:01:13.714Z,69.25
2022-12-31T17:03:45.008Z,62.85
2022-12-31T17:06:15.655Z,64.70
2022-12-31T17:08:44.826Z,64.32
2022-12-31T17:11:24.037Z,65.93
2022-12-31T17:14:11.871Z,66.05
2022-12-31T17:17:02.261Z,62.67
2022-12-31T17:19:40.349Z,63.67
2022-12-31T17:24:38.736Z,66.32
2022-12-31T17:27:07.979Z,65.32
2022-12-31T17:29:35.584Z,64.85
2022-12-31T17:32:24.283Z,67.13
2022-12-31T17:34:51.911Z,67.97
2022-12-31T17:37:25.118Z,61.78
2022-12-31T17:39:54.549Z,65.97
2022-12-31T17:42:37.582Z,71.05
2022-12-31T17:45:22.145Z,68.28
2022-12-31T17:47:52.488Z,66.45
2022-12-31T17:50:19.771Z,63.05
2022-12-31T17:52:47.667Z,64.60
2022-12-31T17:55:15.089Z,64.47
2022-12-31T17:57:52.298Z,66.93
2022-12-31T18:00:27.123Z,63.83
2022-12-31T18:02:54.933Z,67.45
2022-12-31T18:05:23.855Z,63.78
2022-12-31T18:07:52.217Z,58.53
2022-12-31T18:10:22.839Z,67.80
2022-12-31T18:12:50.939Z,61.40
2022-12-31T18:15:21.457Z,65.25
2022-12-31T18:17:49.337Z,66.03
2022-12-31T18:20:17.795Z,61.58
2022-12-31T18:22:45.884Z,59.25
2022-12-31T18:25:22.845Z,58.17
2022-12-31T18:27:52.536Z,59.40
2022-12-31T18:30:19.859Z,61.03
2022-12-31T18:32:47.380Z,64.50
2022-12-31T18:35:57.738Z,63.47
2022-12-31T18:38:16.323Z,65.22
2022-12-31T18:40:50.329Z,59.38
2022-12-31T18:43:19.383Z,61.83
2022-12-31T18:45:47.983Z,64.25
2022-12-31T18:48:16.290Z,64.53
2022-12-31T18:50:44.289Z,64.82
2022-12-31T18:53:17.547Z,59.72
2022-12-31T18:55:48.745Z,61.00
2022-12-31T18:58:16.592Z,60.47
2022-12-31T19:00:44.495Z,61.65
2022-12-31T19:03:23.346Z,62.88
2022-12-31T19:05:51.896Z,62.45
2022-12-31T19:08:23.564Z,66.68
2022-12-31T19:10:52.607Z,63.25
2022-12-31T19:13:20.488Z,61.85
2022-12-31T19:15:51.370Z,57.15
2022-12-31T19:18:19.373Z,57.97
2022-12-31T19:20:47.174Z,57.08
2022-12-31T19:23:20.446Z,55.03
2022-12-31T19:25:49.308Z,56.97
2022-12-31T19:28:20.293Z,56.25
2022-12-31T19:30:48.676Z,55.72
2022-12-31T19:33:17.014Z,56.47
2022-12-31T19:35:45.728Z,55.67
2022-12-31T19:38:22.880Z,51.92
2022-12-31T19:40:51.396Z,53.97
2022-12-31T19:43:21.271Z,52.80
2022-12-31T19:45:50.107Z,53.83
2022-12-31T19:48:30.304Z,54.15
2022-12-31T19:51:00.293Z,54.42
2022-12-31T19:53:28.010Z,51.78
2022-12-31T19:55:55.484Z,60.25
2022-12-31T19:58:28.143Z,57.58
2022-12-31T20:01:02.854Z,63.25
2022-12-31T20:03:32.752Z,59.85
2022-12-31T20:06:05.666Z,60.35
2022-12-31T20:08:34.403Z,62.50
2022-12-31T20:11:15.409Z,58.97
2022-12-31T20:13:43.442Z,56.20
2022-12-31T20:16:13.919Z,57.03
2022-12-31T20:18:43.146Z,60.92
2022-12-31T20:21:20.415Z,59.92
2022-12-31T20:23:49.448Z,57.95
2022-12-31T20:26:17.716Z,64.65
2022-12-31T20:28:45.828Z,57.67
2022-12-31T20:31:19.002Z,61.05
2022-12-31T20:33:46.484Z,58.60
2022-12-31T20:36:16.091Z,58.97
2022-12-31T20:38:44.376Z,51.97
2022-12-31T20:41:17.674Z,58.63
2022-12-31T20:43:45.693Z,56.80
2022-12-31T20:46:21.777Z,54.33
2022-12-31T20:48:51.331Z,56.13
2022-12-31T20:51:20.116Z,58.33
2022-12-31T20:53:55.126Z,56.47
2022-12-31T20:56:26.053Z,57.70
2022-12-31T20:58:53.492Z,60.08
2022-12-31T21:01:21.910Z,55.83
2022-12-31T21:04:06.654Z,55.78
2022-12-31T21:06:35.702Z,60.75
2022-12-31T21:09:05.359Z,58.95
2022-12-31T21:11:51.860Z,58.65
2022-12-31T21:14:19.803Z,56.80
2022-12-31T21:16:47.367Z,67.82
2022-12-31T21:19:14.872Z,68.32
2022-12-31T21:21:42.472Z,65.88
2022-12-31T21:24:10.204Z,68.82
2022-12-31T21:26:37.630Z,69.78
2022-12-31T21:29:05.068Z,66.93
2022-12-31T21:31:32.691Z,67.55
2022-12-31T21:34:00.197Z,71.93
2022-12-31T21:36:29.633Z,78.00
2022-12-31T21:38:57.124Z,74.28
2022-12-31T21:41:43.105Z,75.35
2022-12-31T21:44:13.694Z,73.45
2022-12-31T21:47:00.884Z,74.00
2022-12-31T21:49:28.507Z,73.50
2022-12-31T21:52:14.291Z,73.82
2022-12-31T21:55:20.233Z,73.50
2022-12-31T22:00:58.756Z,68.00
2022-12-31T22:03:29.253Z,66.63
2022-12-31T22:06:12.434Z,65.88
2022-12-31T22:08:41.946Z,65.60
2022-12-31T22:11:10.781Z,65.30
2022-12-31T22:13:39.054Z,64.07
2022-12-31T22:16:07.532Z,62.22
2022-12-31T22:18:38.909Z,64.88
2022-12-31T22:21:18.780Z,62.75
2022-12-31T22:23:50.134Z,68.60
2022-12-31T22:26:19.750Z,65.20
2022-12-31T22:28:47.560Z,66.45
2022-12-31T22:31:21.152Z,83.30
2022-12-31T22:33:48.719Z,95.75
2022-12-31T22:36:19.149Z,89.50
2022-12-31T22:38:47.489Z,85.25
2022-12-31T22:41:20.670Z,78.28
2022-12-31T22:43:50.777Z,84.07
2022-12-31T22:46:21.407Z,68.63
2022-12-31T22:48:49.708Z,65.13
2022-12-31T22:51:17.896Z,55.15
2022-12-31T22:53:45.714Z,57.72
2022-12-31T22:56:16.265Z,55.90
2022-12-31T22:58:44.464Z,59.60
2022-12-31T23:01:19.453Z,64.32
2022-12-31T23:03:48.301Z,62.70
2022-12-31T23:06:16.424Z,61.50
2022-12-31T23:09:03.830Z,64.47
2022-12-31T23:11:31.951Z,77.22
2022-12-31T23:14:18.239Z,114.47
2022-12-31T23:17:57.144Z,90.47
2022-12-31T23:20:44.021Z,80.32
2022-12-31T23:23:15.343Z,77.72
2022-12-31T23:25:46.792Z,91.10
2022-12-31T23:28:17.882Z,94.97
2022-12-31T23:30:45.392Z,106.47
2022-12-31T23:33:18.975Z,127.15
2022-12-31T23:35:46.573Z,142.63
2022-12-31T23:38:16.633Z,162.07
2022-12-31T23:40:44.549Z,182.10
2022-12-31T23:43:22.381Z,176.77
2022-12-31T23:45:51.690Z,194.75
2022-12-31T23:48:19.242Z,188.18
2022-12-31T23:50:52.944Z,214.93
2022-12-31T23:53:22.883Z,223.40
2022-12-31T23:55:51.082Z,213.18
2022-12-31T23:58:18.680Z,216.30
